Impacts TAF Board
For situational awareness. Not to be used for flight planning purposes.
IDs:

KSTL - St Louis/Lambert Int, MO, US

Issued at 2331 UTC 09 Dec 2022
Updated at 0301 UTC 10 Dec 2022
Potential Impact None Slight Moderate High
Time<<11/03Z 11/04Z 11/05Z 11/06Z 11/07Z 11/08Z 11/09Z 11/10Z 11/11Z 11/12Z 11/13Z 11/14Z 11/15Z
Type PRVL PRVL PRVL
VIS >6 >6 >6
CIG 40 40 40
Cover OVC OVC OVC
FltCat VFR VFR VFR
WX -- -- --
WDir VRB VRB VRB
WSpd 0 0 0
WGst -- -- --
WSHgt -- -- --
WSDir -- -- --
WSSpd -- -- --
Raw TAF
KSTL 092331Z 1000/1106 31007KT P6SM OVC015
  FM100400 VRB03KT P6SM OVC015
  FM101300 VRB04KT P6SM VCSH OVC018
  FM110000 00000KT P6SM OVC040


METAR Board
Radar Display
Forecast Discussion
For situational awareness. Not to be used for flight planning purposes.